createdAt,value
2023-04-04T00:00:12.383Z,101252.34
2023-04-04T00:02:40.224Z,101257.25
2023-04-04T00:05:09.833Z,101258.50
2023-04-04T00:07:37.799Z,101257.22
2023-04-04T00:10:06.183Z,101250.56
2023-04-04T00:12:33.762Z,101256.06
2023-04-04T00:15:01.385Z,101250.38
2023-04-04T00:17:29.187Z,101245.19
2023-04-04T00:19:57.083Z,101249.56
2023-04-04T00:22:26.158Z,101243.38
2023-04-04T00:24:53.749Z,101251.50
2023-04-04T00:27:21.547Z,101249.22
2023-04-04T00:29:51.506Z,101247.53
2023-04-04T00:32:19.180Z,101244.91
2023-04-04T00:34:46.844Z,101246.13
2023-04-04T00:37:14.435Z,101245.03
2023-04-04T00:39:43.774Z,101239.09
2023-04-04T00:42:11.692Z,101232.84
2023-04-04T00:44:39.525Z,101237.16
2023-04-04T00:47:07.275Z,101233.78
2023-04-04T00:49:34.958Z,101239.94
2023-04-04T00:52:03.129Z,101235.78
2023-04-04T00:54:31.474Z,101233.50
2023-04-04T00:57:02.087Z,101237.81
2023-04-04T00:59:30.098Z,101236.34
2023-04-04T01:01:58.267Z,101227.66
2023-04-04T01:04:25.988Z,101228.41
2023-04-04T01:06:53.686Z,101226.94
2023-04-04T01:09:23.000Z,101226.00
2023-04-04T01:11:51.462Z,101222.41
2023-04-04T01:14:20.471Z,101227.25
2023-04-04T01:16:49.914Z,101232.34
2023-04-04T01:19:31.868Z,101227.59
2023-04-04T01:22:01.283Z,101224.75
2023-04-04T01:24:33.627Z,101222.44
2023-04-04T01:27:02.900Z,101221.97
2023-04-04T01:29:30.670Z,101229.59
2023-04-04T01:32:05.162Z,101230.66
2023-04-04T01:34:42.954Z,101231.41
2023-04-04T01:37:17.715Z,101224.13
2023-04-04T01:39:50.656Z,101232.78
2023-04-04T01:42:20.991Z,101226.97
2023-04-04T01:44:48.854Z,101218.94
2023-04-04T01:47:16.901Z,101224.84
2023-04-04T01:49:44.574Z,101222.44
2023-04-04T01:52:12.269Z,101223.69
2023-04-04T01:54:39.819Z,101221.38
2023-04-04T01:57:07.551Z,101223.06
2023-04-04T01:59:36.642Z,101222.53
2023-04-04T02:02:04.270Z,101221.03
2023-04-04T02:04:32.185Z,101220.38
2023-04-04T02:07:00.101Z,101219.66
2023-04-04T02:09:27.775Z,101219.75
2023-04-04T02:11:56.360Z,101217.44
2023-04-04T02:14:23.985Z,101224.75
2023-04-04T02:16:52.862Z,101225.38
2023-04-04T02:19:20.585Z,101226.09
2023-04-04T02:21:48.211Z,101226.84
2023-04-04T02:24:15.834Z,101226.84
2023-04-04T02:26:43.503Z,101222.63
2023-04-04T02:29:11.172Z,101224.09
2023-04-04T02:31:38.796Z,101231.16
2023-04-04T02:34:08.929Z,101228.53
2023-04-04T02:36:36.724Z,101218.69
2023-04-04T02:39:04.741Z,101223.97
2023-04-04T02:41:32.606Z,101222.91
2023-04-04T02:44:00.275Z,101215.72
2023-04-04T02:46:30.185Z,101214.88
2023-04-04T02:48:57.851Z,101206.56
2023-04-04T02:51:27.460Z,101206.88
2023-04-04T02:53:55.022Z,101204.00
2023-04-04T02:56:22.753Z,101204.63
2023-04-04T02:58:53.396Z,101199.97
2023-04-04T03:01:21.320Z,101192.69
2023-04-04T03:03:50.086Z,101200.81
2023-04-04T03:06:20.415Z,101200.09
2023-04-04T03:08:50.479Z,101194.06
2023-04-04T03:11:21.214Z,101196.81
2023-04-04T03:13:51.380Z,101186.25
2023-04-04T03:16:20.705Z,101187.22
2023-04-04T03:18:48.369Z,101193.34
2023-04-04T03:21:16.931Z,101186.69
2023-04-04T03:23:44.640Z,101191.31
2023-04-04T03:26:13.818Z,101185.53
2023-04-04T03:28:42.075Z,101191.97
2023-04-04T03:31:10.184Z,101190.06
2023-04-04T03:33:38.125Z,101192.78
2023-04-04T03:36:11.813Z,101188.00
2023-04-04T03:38:39.989Z,101185.31
2023-04-04T03:41:08.759Z,101187.41
2023-04-04T03:43:37.893Z,101175.72
2023-04-04T03:46:07.213Z,101185.00
2023-04-04T03:48:35.528Z,101177.41
2023-04-04T03:51:04.937Z,101177.16
2023-04-04T03:53:33.034Z,101178.16
2023-04-04T03:56:01.093Z,101177.44
2023-04-04T03:58:30.309Z,101179.84
2023-04-04T04:00:59.248Z,101182.66
2023-04-04T04:03:27.021Z,101178.97
2023-04-04T04:05:55.301Z,101178.75
2023-04-04T04:08:24.089Z,101176.56
2023-04-04T04:10:53.358Z,101178.00
2023-04-04T04:13:22.894Z,101179.94
2023-04-04T04:15:52.653Z,101170.84
2023-04-04T04:18:21.741Z,101180.19
2023-04-04T04:20:49.448Z,101169.00
2023-04-04T04:23:17.161Z,101171.94
2023-04-04T04:25:49.133Z,101172.59
2023-04-04T04:28:18.577Z,101173.75
2023-04-04T04:30:46.427Z,101175.84
2023-04-04T04:33:14.226Z,101179.34
2023-04-04T04:35:43.423Z,101174.63
2023-04-04T04:38:14.093Z,101180.41
2023-04-04T04:40:43.010Z,101176.72
2023-04-04T04:43:11.011Z,101169.94
2023-04-04T04:45:38.756Z,101172.19
2023-04-04T04:48:14.781Z,101178.09
2023-04-04T04:50:53.391Z,101180.81
2023-04-04T04:53:21.928Z,101180.41
2023-04-04T04:55:52.422Z,101179.69
2023-04-04T04:58:24.096Z,101176.31
2023-04-04T05:00:58.182Z,101187.16
2023-04-04T05:03:26.245Z,101181.88
2023-04-04T05:05:55.404Z,101183.25
2023-04-04T05:08:23.692Z,101189.16
2023-04-04T05:10:52.780Z,101180.44
2023-04-04T05:13:20.413Z,101185.00
2023-04-04T05:15:49.733Z,101191.00
2023-04-04T05:18:18.547Z,101193.97
2023-04-04T05:20:52.161Z,101195.78
2023-04-04T05:23:21.560Z,101198.53
2023-04-04T05:25:50.638Z,101218.63
2023-04-04T05:28:18.368Z,101214.88
2023-04-04T05:30:48.114Z,101219.63
2023-04-04T05:33:15.774Z,101219.78
2023-04-04T05:35:43.508Z,101217.44
2023-04-04T05:38:11.111Z,101217.41
2023-04-04T05:40:40.480Z,101220.44
2023-04-04T05:43:09.371Z,101223.38
2023-04-04T05:45:38.424Z,101219.38
2023-04-04T05:48:07.728Z,101217.34
2023-04-04T05:50:35.787Z,101210.72
2023-04-04T05:53:07.296Z,101206.06
2023-04-04T05:55:35.069Z,101208.53
2023-04-04T05:58:04.145Z,101223.88
2023-04-04T06:00:32.169Z,101225.50
2023-04-04T06:03:00.420Z,101223.44
2023-04-04T06:05:28.541Z,101229.75
2023-04-04T06:08:03.913Z,101222.91
2023-04-04T06:10:31.656Z,101215.59
2023-04-04T06:12:59.250Z,101227.50
2023-04-04T06:15:28.269Z,101223.81
2023-04-04T06:17:55.939Z,101214.13
2023-04-04T06:20:24.187Z,101208.50
2023-04-04T06:22:51.944Z,101204.22
2023-04-04T06:25:22.102Z,101207.97
2023-04-04T06:27:49.907Z,101211.16
2023-04-04T06:30:18.230Z,101210.47
2023-04-04T06:32:47.269Z,101187.25
2023-04-04T06:35:15.178Z,101194.56
2023-04-04T06:37:43.259Z,101196.44
2023-04-04T06:40:11.828Z,101194.16
2023-04-04T06:42:39.495Z,101203.75
2023-04-04T06:45:08.578Z,101179.38
2023-04-04T06:47:36.196Z,101184.19
2023-04-04T06:50:06.154Z,101183.31
2023-04-04T06:52:34.511Z,101188.00
2023-04-04T06:55:02.223Z,101198.88
2023-04-04T06:57:29.867Z,101207.72
2023-04-04T06:59:57.660Z,101196.06
2023-04-04T07:02:25.802Z,101199.84
2023-04-04T07:04:53.503Z,101189.97
2023-04-04T07:07:22.675Z,101200.69
2023-04-04T07:09:51.582Z,101189.25
2023-04-04T07:12:19.587Z,101188.84
2023-04-04T07:14:47.461Z,101166.81
2023-04-04T07:17:24.228Z,101189.06
2023-04-04T07:19:54.190Z,101173.31
2023-04-04T07:22:23.306Z,101183.00
2023-04-04T07:24:51.003Z,101190.84
2023-04-04T07:27:21.797Z,101184.09
2023-04-04T07:29:56.157Z,101181.81
2023-04-04T07:32:27.565Z,101189.22
2023-04-04T07:34:55.441Z,101183.09
2023-04-04T07:37:26.540Z,101179.63
2023-04-04T07:39:54.178Z,101167.38
2023-04-04T07:42:23.932Z,101158.25
2023-04-04T07:44:51.957Z,101163.09
2023-04-04T07:47:20.523Z,101174.03
2023-04-04T07:49:48.282Z,101176.50
2023-04-04T07:52:16.376Z,101156.25
2023-04-04T07:54:45.309Z,101141.25
2023-04-04T07:57:12.970Z,101155.03
2023-04-04T07:59:40.784Z,101150.47
2023-04-04T08:02:08.477Z,101148.88
2023-04-04T08:04:36.541Z,101126.38
2023-04-04T08:07:04.182Z,101125.75
2023-04-04T08:09:34.329Z,101129.16
2023-04-04T08:12:03.535Z,101125.81
2023-04-04T08:14:31.430Z,101130.78
2023-04-04T08:17:01.246Z,101113.44
2023-04-04T08:19:28.980Z,101114.19
2023-04-04T08:21:56.904Z,101106.50
2023-04-04T08:24:25.571Z,101128.06
2023-04-04T08:27:04.618Z,101127.81
2023-04-04T08:29:35.522Z,101130.06
2023-04-04T08:32:03.257Z,101117.53
2023-04-04T08:34:31.139Z,101125.97
2023-04-04T08:37:00.152Z,101129.66
2023-04-04T08:39:28.103Z,101144.16
2023-04-04T08:42:02.634Z,101132.69
2023-04-04T08:44:31.174Z,101126.09
2023-04-04T08:47:01.483Z,101100.25
2023-04-04T08:49:32.972Z,101112.19
2023-04-04T08:52:02.649Z,101128.00
2023-04-04T08:54:32.112Z,101120.91
2023-04-04T08:56:59.821Z,101111.81
2023-04-04T08:59:27.716Z,101100.25
2023-04-04T09:02:03.839Z,101094.66
2023-04-04T09:04:32.926Z,101092.72
2023-04-04T09:07:03.384Z,101103.88
2023-04-04T09:09:32.368Z,101105.63
2023-04-04T09:12:01.459Z,101125.41
2023-04-04T09:14:31.868Z,101112.91
2023-04-04T09:17:00.973Z,101084.41
2023-04-04T09:19:28.609Z,101071.88
2023-04-04T09:21:56.856Z,101096.28
2023-04-04T09:24:24.394Z,101095.91
2023-04-04T09:26:54.170Z,101088.69
2023-04-04T09:29:22.463Z,101077.22
2023-04-04T09:31:51.575Z,101073.53
2023-04-04T09:34:21.589Z,101081.69
2023-04-04T09:36:49.467Z,101083.78
2023-04-04T09:39:17.558Z,101082.25
2023-04-04T09:41:46.366Z,101081.31
2023-04-04T09:44:15.419Z,101088.72
2023-04-04T09:46:43.435Z,101080.84
2023-04-04T09:49:13.412Z,101083.44
2023-04-04T09:51:45.338Z,101085.69
2023-04-04T09:54:28.873Z,101083.28
2023-04-04T09:56:58.374Z,101096.22
2023-04-04T09:59:27.263Z,101075.66
2023-04-04T10:01:55.940Z,101083.53
2023-04-04T10:04:27.168Z,101072.31
2023-04-04T10:06:56.612Z,101083.97
2023-04-04T10:09:24.351Z,101087.59
2023-04-04T10:11:52.298Z,101082.06
2023-04-04T10:14:20.147Z,101083.41
2023-04-04T10:16:47.717Z,101089.25
2023-04-04T10:19:19.001Z,101090.75
2023-04-04T10:21:47.708Z,101098.84
2023-04-04T10:24:18.938Z,101080.41
2023-04-04T10:26:46.784Z,101079.41
2023-04-04T10:29:14.542Z,101084.97
2023-04-04T10:31:48.139Z,101078.56
2023-04-04T10:34:23.066Z,101087.81
2023-04-04T10:36:52.802Z,101082.44
2023-04-04T10:39:27.174Z,101085.38
2023-04-04T10:41:56.794Z,101082.50
2023-04-04T10:44:29.602Z,101097.63
2023-04-04T10:46:59.634Z,101085.13
2023-04-04T10:49:29.679Z,101078.75
2023-04-04T10:51:58.260Z,101084.09
2023-04-04T10:54:29.131Z,101087.97
2023-04-04T10:57:01.366Z,101076.88
2023-04-04T10:59:29.191Z,101088.28
2023-04-04T11:01:58.725Z,101073.53
2023-04-04T11:04:35.031Z,101075.34
2023-04-04T11:07:17.609Z,101070.13
2023-04-04T11:09:54.845Z,101072.28
2023-04-04T11:12:27.153Z,101058.00
2023-04-04T11:15:09.736Z,101060.44
2023-04-04T11:18:14.321Z,101041.44
2023-04-04T11:20:52.581Z,101061.91
2023-04-04T11:23:22.736Z,101050.88
2023-04-04T11:25:55.559Z,101041.22
2023-04-04T11:28:27.977Z,101037.00
2023-04-04T11:31:24.741Z,101043.34
2023-04-04T11:33:59.454Z,101039.69
2023-04-04T11:36:55.069Z,101031.81
2023-04-04T11:39:25.880Z,101046.56
2023-04-04T11:42:03.498Z,101032.59
2023-04-04T11:44:32.446Z,101031.91
2023-04-04T11:47:05.167Z,101033.91
2023-04-04T11:49:36.113Z,101018.25
2023-04-04T11:52:06.658Z,101024.19
2023-04-04T11:54:34.726Z,101020.94
2023-04-04T11:57:03.822Z,101015.84
2023-04-04T11:59:31.670Z,101006.19
2023-04-04T12:02:01.152Z,101007.44
2023-04-04T12:04:29.240Z,101004.41
2023-04-04T12:06:57.951Z,101003.84
2023-04-04T12:09:28.316Z,101000.97
2023-04-04T12:11:56.918Z,101009.94
2023-04-04T12:14:27.193Z,101018.75
2023-04-04T12:16:57.480Z,101005.81
2023-04-04T12:19:25.826Z,101002.50
2023-04-04T12:21:54.863Z,101007.97
2023-04-04T12:24:23.027Z,100996.13
2023-04-04T12:26:53.114Z,101004.00
2023-04-04T12:29:23.236Z,100993.66
2023-04-04T12:31:53.427Z,100988.47
2023-04-04T12:34:23.730Z,100984.13
2023-04-04T12:36:54.070Z,100984.13
2023-04-04T12:39:23.397Z,100982.44
2023-04-04T12:41:55.530Z,100981.75
2023-04-04T12:44:29.174Z,100978.59
2023-04-04T12:47:01.343Z,100980.66
2023-04-04T12:49:31.148Z,100982.75
2023-04-04T12:52:03.823Z,100983.97
2023-04-04T12:54:33.066Z,100970.91
2023-04-04T12:57:04.427Z,100977.00
2023-04-04T12:59:33.818Z,100977.19
2023-04-04T13:02:05.279Z,100972.50
2023-04-04T13:04:33.338Z,100967.56
2023-04-04T13:07:01.907Z,100962.56
2023-04-04T13:09:29.676Z,100972.63
2023-04-04T13:11:58.827Z,100955.13
2023-04-04T13:14:26.634Z,100962.22
2023-04-04T13:17:08.089Z,100957.38
2023-04-04T13:19:36.148Z,100944.84
2023-04-04T13:22:06.942Z,100940.22
2023-04-04T13:24:34.797Z,100948.91
2023-04-04T13:27:02.492Z,100944.84
2023-04-04T13:29:30.065Z,100934.44
2023-04-04T13:32:00.123Z,100937.97
2023-04-04T13:34:29.371Z,100927.59
2023-04-04T13:36:57.766Z,100927.00
2023-04-04T13:39:25.586Z,100928.53
2023-04-04T13:41:53.942Z,100921.81
2023-04-04T13:44:21.622Z,100922.31
2023-04-04T13:46:49.912Z,100932.09
2023-04-04T13:49:17.582Z,100925.66
2023-04-04T13:51:47.975Z,100909.75
2023-04-04T13:54:15.698Z,100913.25
2023-04-04T13:56:43.371Z,100907.72
2023-04-04T13:59:11.368Z,100896.06
2023-04-04T14:01:39.558Z,100885.19
2023-04-04T14:04:16.594Z,100891.22
2023-04-04T14:06:52.218Z,100887.22
2023-04-04T14:09:20.165Z,100891.91
2023-04-04T14:11:48.192Z,100888.56
2023-04-04T14:14:15.830Z,100883.88
2023-04-04T14:16:43.529Z,100884.53
2023-04-04T14:19:11.299Z,100878.16
2023-04-04T14:21:39.491Z,100871.47
2023-04-04T14:24:08.888Z,100873.81
2023-04-04T14:26:37.729Z,100868.50
2023-04-04T14:29:05.706Z,100874.16
2023-04-04T14:31:34.923Z,100863.13
2023-04-04T14:34:02.791Z,100857.44
2023-04-04T14:36:31.607Z,100865.13
2023-04-04T14:38:59.787Z,100871.47
2023-04-04T14:41:29.198Z,100861.47
2023-04-04T14:43:57.162Z,100858.44
2023-04-04T14:46:27.365Z,100849.38
2023-04-04T14:48:55.273Z,100861.78
2023-04-04T14:51:23.100Z,100853.75
2023-04-04T14:53:52.465Z,100849.72
2023-04-04T14:56:22.752Z,100848.88
2023-04-04T14:58:52.487Z,100850.25
2023-04-04T15:01:21.963Z,100840.34
2023-04-04T15:03:49.683Z,100835.84
2023-04-04T15:06:17.489Z,100846.88
2023-04-04T15:08:45.585Z,100846.91
2023-04-04T15:11:15.866Z,100848.25
2023-04-04T15:13:44.231Z,100840.38
2023-04-04T15:16:13.335Z,100833.34
2023-04-04T15:18:41.064Z,100835.03
2023-04-04T15:21:08.713Z,100822.66
2023-04-04T15:23:36.572Z,100836.34
2023-04-04T15:26:04.296Z,100821.28
2023-04-04T15:28:31.973Z,100822.97
2023-04-04T15:31:01.946Z,100834.00
2023-04-04T15:33:32.259Z,100827.13
2023-04-04T15:36:01.133Z,100828.66
2023-04-04T15:38:28.966Z,100822.47
2023-04-04T15:40:57.838Z,100822.13
2023-04-04T15:43:28.179Z,100806.25
2023-04-04T15:45:55.778Z,100806.53
2023-04-04T15:48:23.677Z,100807.53
2023-04-04T15:50:52.936Z,100801.47
2023-04-04T15:53:20.743Z,100806.72
2023-04-04T15:55:49.643Z,100797.69
2023-04-04T15:58:17.193Z,100798.56
2023-04-04T16:00:47.465Z,100784.53
2023-04-04T16:03:15.668Z,100795.75
2023-04-04T16:05:43.623Z,100797.22
2023-04-04T16:08:13.263Z,100802.25
2023-04-04T16:10:41.332Z,100798.91
2023-04-04T16:13:09.316Z,100795.19
2023-04-04T16:15:37.060Z,100793.88
2023-04-04T16:18:04.952Z,100799.88
2023-04-04T16:20:32.615Z,100789.69
2023-04-04T16:23:00.253Z,100791.19
2023-04-04T16:25:29.431Z,100782.84
2023-04-04T16:27:57.133Z,100796.22
2023-04-04T16:30:24.955Z,100790.88
2023-04-04T16:32:52.662Z,100783.84
2023-04-04T16:35:20.488Z,100780.50
2023-04-04T16:37:48.709Z,100784.88
2023-04-04T16:40:16.584Z,100791.03
2023-04-04T16:42:45.983Z,100783.88
2023-04-04T16:45:13.650Z,100782.66
2023-04-04T16:47:41.302Z,100781.81
2023-04-04T16:50:09.482Z,100782.00
2023-04-04T16:52:37.107Z,100781.19
2023-04-04T16:55:05.309Z,100778.34
2023-04-04T16:57:33.215Z,100777.16
2023-04-04T17:00:04.042Z,100774.16
2023-04-04T17:02:34.628Z,100772.28
2023-04-04T17:05:02.590Z,100777.16
2023-04-04T17:07:30.510Z,100778.16
2023-04-04T17:09:58.093Z,100778.97
2023-04-04T17:12:27.155Z,100776.25
2023-04-04T17:14:54.954Z,100777.09
2023-04-04T17:17:23.996Z,100772.09
2023-04-04T17:19:51.920Z,100776.47
2023-04-04T17:22:19.822Z,100783.94
2023-04-04T17:24:47.524Z,100790.16
2023-04-04T17:27:15.131Z,100791.44
2023-04-04T17:29:42.901Z,100787.22
2023-04-04T17:32:10.826Z,100787.50
2023-04-04T17:34:40.055Z,100786.97
2023-04-04T17:37:11.090Z,100790.91
2023-04-04T17:39:38.858Z,100792.50
2023-04-04T17:42:06.944Z,100797.22
2023-04-04T17:44:34.822Z,100790.13
2023-04-04T17:47:05.427Z,100789.56
2023-04-04T17:49:33.118Z,100801.56
2023-04-04T17:52:02.572Z,100791.16
2023-04-04T17:54:30.738Z,100804.41
2023-04-04T17:56:59.440Z,100793.25
2023-04-04T17:59:27.961Z,100799.94
2023-04-04T18:01:55.862Z,100795.75
2023-04-04T18:04:25.359Z,100796.09
2023-04-04T18:06:54.552Z,100791.59
2023-04-04T18:09:26.490Z,100795.78
2023-04-04T18:11:58.216Z,100803.03
2023-04-04T18:14:26.661Z,100810.13
2023-04-04T18:16:54.666Z,100807.19
2023-04-04T18:19:22.744Z,100800.56
2023-04-04T18:21:51.616Z,100805.28
2023-04-04T18:24:19.396Z,100805.13
2023-04-04T18:26:48.421Z,100810.59
2023-04-04T18:29:16.251Z,100816.50
2023-04-04T18:31:44.091Z,100817.69
2023-04-04T18:34:14.975Z,100821.72
2023-04-04T18:36:42.656Z,100819.06
2023-04-04T18:39:11.309Z,100820.34
2023-04-04T18:41:39.072Z,100834.41
2023-04-04T18:44:08.800Z,100832.28
2023-04-04T18:46:38.111Z,100837.81
2023-04-04T18:49:06.101Z,100839.28
2023-04-04T18:51:34.425Z,100840.31
2023-04-04T18:54:02.452Z,100841.59
2023-04-04T18:56:30.388Z,100843.19
2023-04-04T18:58:58.117Z,100852.41
2023-04-04T19:01:27.307Z,100852.84
2023-04-04T19:03:55.344Z,100850.03
2023-04-04T19:06:26.711Z,100852.09
2023-04-04T19:09:01.047Z,100854.50
2023-04-04T19:11:29.198Z,100854.75
2023-04-04T19:13:57.039Z,100852.66
2023-04-04T19:16:25.005Z,100853.66
2023-04-04T19:18:54.345Z,100852.84
2023-04-04T19:21:22.234Z,100862.38
2023-04-04T19:23:50.033Z,100859.56
2023-04-04T19:26:18.355Z,100858.97
2023-04-04T19:28:46.651Z,100854.34
2023-04-04T19:31:21.490Z,100861.78
2023-04-04T19:33:50.555Z,100848.78
2023-04-04T19:36:20.804Z,100857.78
2023-04-04T19:38:49.243Z,100856.50
2023-04-04T19:41:33.771Z,100847.53
2023-04-04T19:44:01.611Z,100852.06
2023-04-04T19:46:32.158Z,100850.50
2023-04-04T19:49:02.772Z,100844.22
2023-04-04T19:51:52.838Z,100845.66
2023-04-04T19:54:26.121Z,100846.34
2023-04-04T19:56:59.788Z,100849.56
2023-04-04T19:59:59.030Z,100855.19
2023-04-04T20:03:02.963Z,100848.88
2023-04-04T20:06:03.355Z,100856.75
2023-04-04T20:08:38.488Z,100860.78
2023-04-04T20:11:07.565Z,100855.31
2023-04-04T20:13:37.032Z,100872.25
2023-04-04T20:16:11.007Z,100871.72
2023-04-04T20:18:39.976Z,100872.13
2023-04-04T20:21:10.494Z,100862.06
2023-04-04T20:23:43.292Z,100864.72
2023-04-04T20:26:14.341Z,100870.44
2023-04-04T20:28:45.554Z,100869.19
2023-04-04T20:31:17.231Z,100872.09
2023-04-04T20:33:45.288Z,100865.84
2023-04-04T20:36:31.254Z,100866.81
2023-04-04T20:39:00.815Z,100870.56
2023-04-04T20:41:28.804Z,100870.81
2023-04-04T20:43:58.198Z,100868.72
2023-04-04T20:46:27.256Z,100867.47
2023-04-04T20:48:57.054Z,100878.78
2023-04-04T20:51:32.481Z,100881.84
2023-04-04T20:54:06.142Z,100877.78
2023-04-04T20:56:52.545Z,100885.31
2023-04-04T20:59:38.393Z,100891.66
2023-04-04T21:02:16.705Z,100889.66
2023-04-04T21:04:48.066Z,100894.81
2023-04-04T21:07:38.745Z,100891.19
2023-04-04T21:10:26.422Z,100890.66
2023-04-04T21:12:54.804Z,100894.16
2023-04-04T21:15:28.386Z,100898.53
2023-04-04T21:17:56.798Z,100898.81
2023-04-04T21:21:01.975Z,100892.75
2023-04-04T21:23:34.042Z,100893.75
2023-04-04T21:26:04.574Z,100898.81
2023-04-04T21:28:37.285Z,100903.53
2023-04-04T21:31:12.240Z,100900.72
2023-04-04T21:33:40.772Z,100907.59
2023-04-04T21:36:16.116Z,100900.59
2023-04-04T21:38:43.867Z,100906.50
2023-04-04T21:41:21.351Z,100900.06
2023-04-04T21:43:48.977Z,100907.56
2023-04-04T21:46:16.833Z,100909.16
2023-04-04T21:48:44.632Z,100896.28
2023-04-04T21:51:12.376Z,100905.91
2023-04-04T21:53:39.908Z,100901.56
2023-04-04T21:56:07.741Z,100896.25
2023-04-04T21:58:37.955Z,100897.91
2023-04-04T22:01:05.995Z,100901.69
2023-04-04T22:03:33.612Z,100901.91
2023-04-04T22:06:01.250Z,100898.28
2023-04-04T22:08:28.896Z,100902.81
2023-04-04T22:10:58.817Z,100909.38
2023-04-04T22:13:33.166Z,100910.88
2023-04-04T22:16:04.781Z,100916.63
2023-04-04T22:18:34.620Z,100915.94
2023-04-04T22:21:04.211Z,100918.88
2023-04-04T22:23:35.469Z,100920.22
2023-04-04T22:26:06.236Z,100919.28
2023-04-04T22:28:34.520Z,100915.88
2023-04-04T22:31:03.724Z,100912.13
2023-04-04T22:33:33.861Z,100909.63
2023-04-04T22:36:01.841Z,100905.13
2023-04-04T22:38:30.346Z,100904.13
2023-04-04T22:40:59.456Z,100910.06
2023-04-04T22:43:27.431Z,100909.94
2023-04-04T22:45:55.088Z,100907.59
2023-04-04T22:48:24.364Z,100908.97
2023-04-04T22:50:55.568Z,100911.66
2023-04-04T22:53:24.976Z,100906.16
2023-04-04T22:55:53.747Z,100909.38
2023-04-04T22:58:22.396Z,100905.03
2023-04-04T23:00:50.103Z,100903.19
2023-04-04T23:03:17.747Z,100897.97
2023-04-04T23:05:46.704Z,100894.19
2023-04-04T23:08:14.285Z,100892.78
2023-04-04T23:10:42.136Z,100899.91
2023-04-04T23:13:09.969Z,100897.25
2023-04-04T23:15:37.788Z,100898.22
2023-04-04T23:18:06.460Z,100896.50
2023-04-04T23:20:34.192Z,100895.97
2023-04-04T23:23:03.183Z,100895.78
2023-04-04T23:25:30.776Z,100893.94
2023-04-04T23:27:58.361Z,100901.34
2023-04-04T23:30:27.293Z,100902.84
2023-04-04T23:32:55.013Z,100896.03
2023-04-04T23:35:22.658Z,100895.47
2023-04-04T23:37:50.417Z,100891.06
2023-04-04T23:40:19.628Z,100895.34
2023-04-04T23:42:47.232Z,100891.44
2023-04-04T23:45:16.104Z,100892.81
2023-04-04T23:47:44.014Z,100892.53
2023-04-04T23:50:12.075Z,100891.00
2023-04-04T23:52:40.908Z,100880.59
2023-04-04T23:55:09.330Z,100881.06
2023-04-04T23:57:38.932Z,100880.72
